createdAt,value
2018-11-22T00:00:15.932Z,17.27
2018-11-22T00:01:16.507Z,17.26
2018-11-22T00:02:17.089Z,17.29
2018-11-22T00:03:17.704Z,17.26
2018-11-22T00:05:02.793Z,17.30
2018-11-22T00:06:03.420Z,17.24
2018-11-22T00:07:03.998Z,17.33
2018-11-22T00:08:04.570Z,17.24
2018-11-22T00:09:05.148Z,17.26
2018-11-22T00:10:05.766Z,17.30
2018-11-22T00:11:06.336Z,17.24
2018-11-22T00:12:06.909Z,17.23
2018-11-22T00:13:07.484Z,17.24
2018-11-22T00:14:08.059Z,17.27
2018-11-22T00:15:08.685Z,17.12
2018-11-22T00:16:09.260Z,17.24
2018-11-22T00:17:09.886Z,17.20
2018-11-22T00:18:10.464Z,17.26
2018-11-22T00:19:11.040Z,17.22
2018-11-22T00:20:11.618Z,17.27
2018-11-22T00:21:12.244Z,17.14
2018-11-22T00:22:12.821Z,17.19
2018-11-22T00:23:13.393Z,17.19
2018-11-22T00:24:13.970Z,17.14
2018-11-22T00:25:14.557Z,17.05
2018-11-22T00:26:59.693Z,17.16
2018-11-22T00:28:00.269Z,17.14
2018-11-22T00:29:00.840Z,17.14
2018-11-22T00:30:01.417Z,17.23
2018-11-22T00:31:02.092Z,17.19
2018-11-22T00:32:02.813Z,17.16
2018-11-22T00:33:03.390Z,17.08
2018-11-22T00:34:04.104Z,17.06
2018-11-22T00:35:04.685Z,17.14
2018-11-22T00:36:05.261Z,17.08
2018-11-22T00:37:05.830Z,17.11
2018-11-22T00:38:06.405Z,17.12
2018-11-22T00:39:06.993Z,17.22
2018-11-22T00:40:07.558Z,17.16
2018-11-22T00:41:08.137Z,17.15
2018-11-22T00:42:08.749Z,17.24
2018-11-22T00:43:09.335Z,17.20
2018-11-22T00:44:09.904Z,17.14
2018-11-22T00:45:10.481Z,17.19
2018-11-22T00:46:11.058Z,17.20
2018-11-22T00:47:11.635Z,17.11
2018-11-22T00:48:56.773Z,17.11
2018-11-22T00:49:57.351Z,17.15
2018-11-22T00:50:57.926Z,17.12
2018-11-22T00:51:58.554Z,17.24
2018-11-22T00:52:59.129Z,17.20
2018-11-22T00:53:59.703Z,17.20
2018-11-22T00:55:00.335Z,17.09
2018-11-22T00:56:00.913Z,17.14
2018-11-22T00:57:01.491Z,17.05
2018-11-22T00:58:02.056Z,17.11
2018-11-22T00:59:02.629Z,17.11
2018-11-22T01:00:03.204Z,17.16
2018-11-22T01:01:03.788Z,17.08
2018-11-22T01:02:04.354Z,17.22
2018-11-22T01:03:04.931Z,17.14
2018-11-22T01:04:05.511Z,17.16
2018-11-22T01:05:06.084Z,17.14
2018-11-22T01:06:06.663Z,17.12
2018-11-22T01:07:07.235Z,17.11
2018-11-22T01:08:07.812Z,16.99
2018-11-22T01:09:08.438Z,17.05
2018-11-22T01:10:53.577Z,17.02
2018-11-22T01:11:54.153Z,17.08
2018-11-22T01:12:54.727Z,17.04
2018-11-22T01:13:55.303Z,17.05
2018-11-22T01:14:55.885Z,17.02
2018-11-22T01:15:56.456Z,17.08
2018-11-22T01:16:57.024Z,17.09
2018-11-22T01:17:57.648Z,17.08
2018-11-22T01:18:58.224Z,17.05
2018-11-22T01:19:58.799Z,17.06
2018-11-22T01:20:59.376Z,17.09
2018-11-22T01:21:59.951Z,17.08
2018-11-22T01:23:00.536Z,17.02
2018-11-22T01:24:01.104Z,17.11
2018-11-22T01:25:01.718Z,17.06
2018-11-22T01:26:02.343Z,17.11
2018-11-22T01:27:02.920Z,17.14
2018-11-22T01:28:03.496Z,17.02
2018-11-22T01:29:04.122Z,17.05
2018-11-22T01:30:04.697Z,17.05
2018-11-22T01:31:05.273Z,16.99
2018-11-22T01:32:50.362Z,17.04
2018-11-22T01:33:50.937Z,17.04
2018-11-22T01:34:51.513Z,17.06
2018-11-22T01:35:52.090Z,17.05
2018-11-22T01:36:52.667Z,17.04
2018-11-22T01:37:53.280Z,17.01
2018-11-22T01:38:53.915Z,17.05
2018-11-22T01:39:54.483Z,17.02
2018-11-22T01:40:55.056Z,16.97
2018-11-22T01:41:55.632Z,17.02
2018-11-22T01:42:56.208Z,16.96
2018-11-22T01:43:56.783Z,16.89
2018-11-22T01:44:57.410Z,16.94
2018-11-22T01:45:57.995Z,16.91
2018-11-22T01:46:58.609Z,16.87
2018-11-22T01:47:59.187Z,16.91
2018-11-22T01:48:59.762Z,16.94
2018-11-22T01:50:00.343Z,16.97
2018-11-22T01:51:00.952Z,16.94
2018-11-22T01:52:01.528Z,16.91
2018-11-22T01:53:02.104Z,16.97
2018-11-22T01:54:47.241Z,17.02
2018-11-22T01:55:47.817Z,16.97
2018-11-22T01:56:48.394Z,16.99
2018-11-22T01:57:49.062Z,16.96
2018-11-22T01:58:49.680Z,16.99
2018-11-22T01:59:50.250Z,16.97
2018-11-22T02:00:50.826Z,17.06
2018-11-22T02:01:51.394Z,16.96
2018-11-22T02:02:52.017Z,16.96
2018-11-22T02:03:52.587Z,16.91
2018-11-22T02:04:53.160Z,16.93
2018-11-22T02:05:53.731Z,17.01
2018-11-22T02:06:54.304Z,16.89
2018-11-22T02:07:54.875Z,16.89
2018-11-22T02:08:55.499Z,16.93
2018-11-22T02:09:56.073Z,16.93
2018-11-22T02:10:56.643Z,16.90
2018-11-22T02:11:57.365Z,16.87
2018-11-22T02:12:57.936Z,16.90
2018-11-22T02:13:58.510Z,16.96
2018-11-22T02:14:59.123Z,16.96
2018-11-22T02:16:44.206Z,16.97
2018-11-22T02:17:44.777Z,16.99
2018-11-22T02:18:45.348Z,16.89
2018-11-22T02:19:45.968Z,16.93
2018-11-22T02:20:46.538Z,16.97
2018-11-22T02:21:47.109Z,17.06
2018-11-22T02:22:47.683Z,16.99
2018-11-22T02:23:48.260Z,16.90
2018-11-22T02:24:48.874Z,16.87
2018-11-22T02:25:49.453Z,16.86
2018-11-22T02:26:50.016Z,16.87
2018-11-22T02:27:50.637Z,16.93
2018-11-22T02:28:51.208Z,16.90
2018-11-22T02:29:51.779Z,16.93
2018-11-22T02:30:52.351Z,16.93
2018-11-22T02:31:52.927Z,16.86
2018-11-22T02:32:53.504Z,16.84
2018-11-22T02:33:54.077Z,16.81
2018-11-22T02:34:54.653Z,16.90
2018-11-22T02:35:55.234Z,16.91
2018-11-22T02:36:55.849Z,16.78
2018-11-22T02:38:40.987Z,16.93
2018-11-22T02:39:41.565Z,16.91
2018-11-22T02:40:42.191Z,16.86
2018-11-22T02:41:42.771Z,16.89
2018-11-22T02:42:43.387Z,16.86
2018-11-22T02:43:43.954Z,16.90
2018-11-22T02:44:44.532Z,16.89
2018-11-22T02:45:45.147Z,16.87
2018-11-22T02:46:45.723Z,16.84
2018-11-22T02:47:46.347Z,16.89
2018-11-22T02:48:46.935Z,16.76
2018-11-22T02:49:47.497Z,16.75
2018-11-22T02:50:48.121Z,16.74
2018-11-22T02:51:48.697Z,16.86
2018-11-22T02:52:49.274Z,16.76
2018-11-22T02:53:49.851Z,16.83
2018-11-22T02:54:50.467Z,16.72
2018-11-22T02:55:51.092Z,16.79
2018-11-22T02:56:51.680Z,16.83
2018-11-22T02:57:52.242Z,16.72
2018-11-22T02:58:52.870Z,16.71
2018-11-22T03:00:37.956Z,16.84
2018-11-22T03:01:38.533Z,16.84
2018-11-22T03:02:39.109Z,16.86
2018-11-22T03:03:39.687Z,16.84
2018-11-22T03:04:40.301Z,16.84
2018-11-22T03:05:40.879Z,16.81
2018-11-22T03:06:41.493Z,16.79
2018-11-22T03:07:42.065Z,16.90
2018-11-22T03:08:42.690Z,16.89
2018-11-22T03:09:43.266Z,16.84
2018-11-22T03:10:43.842Z,16.87
2018-11-22T03:11:44.466Z,16.90
2018-11-22T03:12:45.048Z,16.90
2018-11-22T03:13:45.660Z,16.81
2018-11-22T03:14:46.235Z,16.93
2018-11-22T03:15:46.856Z,16.84
2018-11-22T03:16:47.424Z,16.78
2018-11-22T03:17:47.998Z,16.90
2018-11-22T03:18:48.623Z,16.87
2018-11-22T03:19:49.201Z,16.90
2018-11-22T03:20:49.777Z,16.91
2018-11-22T03:22:34.865Z,16.83
2018-11-22T03:23:35.442Z,16.83
2018-11-22T03:24:36.067Z,16.83
2018-11-22T03:25:36.641Z,16.84
2018-11-22T03:26:37.215Z,16.76
2018-11-22T03:27:37.838Z,16.84
2018-11-22T03:28:38.415Z,16.83
2018-11-22T03:29:38.987Z,16.76
2018-11-22T03:30:39.562Z,16.84
2018-11-22T03:31:40.138Z,16.72
2018-11-22T03:32:40.714Z,16.83
2018-11-22T03:33:41.300Z,16.72
2018-11-22T03:34:41.964Z,16.69
2018-11-22T03:35:42.532Z,16.74
2018-11-22T03:36:43.151Z,16.83
2018-11-22T03:37:43.728Z,16.83
2018-11-22T03:38:44.303Z,16.81
2018-11-22T03:39:44.927Z,16.81
2018-11-22T03:40:45.505Z,16.78
2018-11-22T03:41:46.081Z,16.78
2018-11-22T03:42:46.708Z,16.69
2018-11-22T03:44:31.796Z,16.74
2018-11-22T03:45:32.422Z,16.74
2018-11-22T03:46:32.997Z,16.74
2018-11-22T03:47:33.574Z,16.81
2018-11-22T03:48:34.190Z,16.66
2018-11-22T03:49:34.761Z,16.71
2018-11-22T03:50:35.349Z,16.68
2018-11-22T03:51:35.910Z,16.69
2018-11-22T03:52:36.533Z,16.69
2018-11-22T03:53:37.108Z,16.75
2018-11-22T03:54:37.686Z,16.72
2018-11-22T03:55:38.259Z,16.68
2018-11-22T03:56:38.889Z,16.66
2018-11-22T03:57:39.461Z,16.72
2018-11-22T03:58:40.036Z,16.76
2018-11-22T03:59:40.617Z,16.69
2018-11-22T04:00:41.197Z,16.74
2018-11-22T04:01:41.763Z,16.72
2018-11-22T04:02:42.339Z,16.68
2018-11-22T04:03:42.912Z,16.69
2018-11-22T04:04:43.488Z,16.68
2018-11-22T04:06:28.575Z,16.69
2018-11-22T04:07:29.152Z,16.72
2018-11-22T04:08:29.727Z,16.69
2018-11-22T04:09:30.307Z,16.68
2018-11-22T04:10:30.876Z,16.71
2018-11-22T04:11:31.453Z,16.69
2018-11-22T04:12:32.076Z,16.69
2018-11-22T04:13:32.702Z,16.61
2018-11-22T04:14:33.329Z,16.69
2018-11-22T04:15:33.892Z,16.74
2018-11-22T04:16:34.467Z,16.65
2018-11-22T04:17:35.040Z,16.71
2018-11-22T04:18:35.664Z,16.69
2018-11-22T04:19:36.241Z,16.75
2018-11-22T04:20:36.814Z,16.72
2018-11-22T04:21:37.392Z,16.72
2018-11-22T04:22:37.967Z,16.74
2018-11-22T04:23:38.544Z,16.79
2018-11-22T04:24:39.119Z,16.75
2018-11-22T04:25:39.694Z,16.69
2018-11-22T04:26:40.269Z,16.69
2018-11-22T04:28:25.567Z,16.78
2018-11-22T04:29:26.133Z,16.76
2018-11-22T04:30:26.708Z,16.79
2018-11-22T04:31:27.333Z,16.69
2018-11-22T04:32:27.907Z,16.79
2018-11-22T04:33:28.482Z,16.69
2018-11-22T04:34:29.058Z,16.81
2018-11-22T04:35:29.642Z,16.72
2018-11-22T04:36:30.206Z,16.78
2018-11-22T04:37:30.783Z,16.84
2018-11-22T04:38:31.399Z,16.76
2018-11-22T04:39:32.016Z,16.83
2018-11-22T04:40:32.591Z,16.86
2018-11-22T04:41:33.166Z,16.83
2018-11-22T04:42:33.739Z,16.84
2018-11-22T04:43:34.365Z,16.87
2018-11-22T04:44:34.942Z,16.83
2018-11-22T04:45:35.514Z,16.90
2018-11-22T04:46:36.091Z,16.84
2018-11-22T04:47:36.666Z,16.81
2018-11-22T04:48:37.293Z,16.78
2018-11-22T04:50:22.431Z,16.81
2018-11-22T04:51:23.009Z,16.69
2018-11-22T04:52:23.584Z,16.81
2018-11-22T04:53:24.161Z,16.79
2018-11-22T04:54:24.734Z,16.83
2018-11-22T04:55:25.319Z,16.78
2018-11-22T04:56:25.883Z,16.84
2018-11-22T04:57:26.465Z,16.76
2018-11-22T04:58:27.035Z,16.72
2018-11-22T04:59:27.604Z,16.81
2018-11-22T05:00:28.179Z,16.76
2018-11-22T05:01:28.754Z,16.74
2018-11-22T05:02:29.329Z,16.83
2018-11-22T05:03:29.954Z,16.75
2018-11-22T05:04:30.764Z,16.83
2018-11-22T05:05:31.190Z,16.79
2018-11-22T05:06:31.824Z,16.76
2018-11-22T05:07:32.391Z,16.83
2018-11-22T05:08:32.967Z,16.81
2018-11-22T05:09:33.551Z,16.91
2018-11-22T05:10:34.124Z,16.79
2018-11-22T05:12:19.211Z,16.86
2018-11-22T05:13:19.796Z,16.89
2018-11-22T05:14:20.419Z,16.84
2018-11-22T05:15:20.988Z,16.84
2018-11-22T05:16:21.565Z,16.86
2018-11-22T05:17:22.136Z,16.87
2018-11-22T05:18:22.711Z,16.83
2018-11-22T05:19:23.337Z,16.78
2018-11-22T05:20:23.911Z,16.81
2018-11-22T05:21:24.485Z,16.83
2018-11-22T05:22:25.111Z,16.79
2018-11-22T05:23:25.683Z,16.83
2018-11-22T05:24:26.259Z,16.86
2018-11-22T05:25:26.837Z,16.86
2018-11-22T05:26:27.413Z,16.81
2018-11-22T05:27:28.037Z,16.79
2018-11-22T05:28:28.615Z,16.76
2018-11-22T05:29:29.186Z,16.84
2018-11-22T05:30:29.761Z,16.79
2018-11-22T05:31:30.346Z,16.72
2018-11-22T05:32:35.300Z,16.79
2018-11-22T05:34:16.005Z,16.71
2018-11-22T05:35:16.582Z,16.71
2018-11-22T05:36:17.158Z,16.72
2018-11-22T05:37:17.733Z,16.71
2018-11-22T05:38:18.357Z,16.72
2018-11-22T05:39:18.939Z,16.69
2018-11-22T05:40:19.507Z,16.71
2018-11-22T05:41:20.134Z,16.75
2018-11-22T05:42:20.707Z,16.74
2018-11-22T05:43:21.282Z,16.72
2018-11-22T05:44:21.861Z,16.71
2018-11-22T05:45:22.430Z,16.58
2018-11-22T05:46:23.054Z,16.72
2018-11-22T05:47:23.631Z,16.68
2018-11-22T05:48:24.254Z,16.58
2018-11-22T05:49:24.833Z,16.66
2018-11-22T05:50:25.406Z,16.60
2018-11-22T05:51:25.983Z,16.66
2018-11-22T05:52:26.557Z,16.57
2018-11-22T05:53:27.133Z,16.71
2018-11-22T05:54:27.710Z,16.69
2018-11-22T05:56:12.848Z,16.68
2018-11-22T05:57:13.424Z,16.61
2018-11-22T05:58:13.999Z,16.61
2018-11-22T05:59:14.580Z,16.72
2018-11-22T06:00:15.151Z,16.71
2018-11-22T06:01:16.402Z,16.71
2018-11-22T06:02:16.305Z,16.60
2018-11-22T06:03:16.917Z,16.61
2018-11-22T06:04:17.549Z,16.69
2018-11-22T06:05:18.265Z,16.60
2018-11-22T06:06:18.840Z,16.66
2018-11-22T06:07:19.416Z,16.64
2018-11-22T06:08:19.991Z,16.58
2018-11-22T06:09:20.565Z,16.65
2018-11-22T06:10:21.139Z,16.61
2018-11-22T06:11:21.715Z,16.64
2018-11-22T06:12:22.290Z,16.64
2018-11-22T06:13:22.865Z,16.61
2018-11-22T06:14:23.491Z,16.65
2018-11-22T06:15:24.065Z,16.57
2018-11-22T06:16:24.642Z,16.58
2018-11-22T06:18:09.730Z,16.60
2018-11-22T06:19:10.305Z,16.58
2018-11-22T06:20:10.882Z,16.58
2018-11-22T06:21:11.466Z,16.58
2018-11-22T06:22:12.090Z,16.51
2018-11-22T06:23:12.704Z,16.56
2018-11-22T06:24:13.289Z,16.60
2018-11-22T06:25:13.853Z,16.60
2018-11-22T06:26:14.430Z,16.42
2018-11-22T06:27:15.010Z,16.47
2018-11-22T06:28:15.585Z,16.53
2018-11-22T06:29:16.157Z,16.50
2018-11-22T06:30:21.886Z,16.49
2018-11-22T06:31:22.510Z,16.47
2018-11-22T06:32:23.185Z,16.51
2018-11-22T06:33:23.858Z,16.50
2018-11-22T06:34:24.433Z,16.43
2018-11-22T06:35:25.011Z,16.47
2018-11-22T06:36:25.626Z,16.42
2018-11-22T06:37:26.198Z,16.43
2018-11-22T06:38:26.774Z,16.47
2018-11-22T06:40:11.872Z,16.46
2018-11-22T06:41:12.440Z,16.41
2018-11-22T06:42:13.016Z,16.42
2018-11-22T06:43:13.593Z,16.41
2018-11-22T06:44:14.167Z,16.42
2018-11-22T06:45:14.746Z,16.42
2018-11-22T06:46:15.314Z,16.42
2018-11-22T06:47:15.887Z,16.41
2018-11-22T06:48:16.461Z,16.41
2018-11-22T06:49:17.035Z,16.46
2018-11-22T06:50:17.659Z,16.42
2018-11-22T06:51:18.235Z,16.42
2018-11-22T06:52:18.862Z,16.47
2018-11-22T06:53:19.435Z,16.41
2018-11-22T06:54:20.011Z,16.41
2018-11-22T06:55:20.676Z,16.41
2018-11-22T06:56:21.251Z,16.46
2018-11-22T06:57:21.826Z,16.47
2018-11-22T06:58:22.400Z,16.47
2018-11-22T06:59:22.977Z,16.42
2018-11-22T07:00:23.553Z,16.42
2018-11-22T07:02:08.641Z,16.50
2018-11-22T07:03:09.216Z,16.50
2018-11-22T07:04:09.795Z,16.42
2018-11-22T07:05:10.367Z,16.49
2018-11-22T07:06:10.990Z,16.43
2018-11-22T07:07:11.565Z,16.43
2018-11-22T07:08:12.144Z,16.42
2018-11-22T07:09:12.717Z,16.50
2018-11-22T07:10:13.292Z,16.43
2018-11-22T07:11:13.867Z,16.50
2018-11-22T07:12:14.443Z,16.50
2018-11-22T07:13:15.020Z,16.46
2018-11-22T07:14:15.592Z,16.42
2018-11-22T07:15:16.216Z,16.43
2018-11-22T07:16:16.849Z,16.42
2018-11-22T07:17:17.417Z,16.43
2018-11-22T07:18:18.000Z,16.43
2018-11-22T07:19:18.569Z,16.41
2018-11-22T07:20:19.139Z,16.43
2018-11-22T07:21:19.715Z,16.38
2018-11-22T07:22:20.293Z,16.32
2018-11-22T07:24:05.381Z,16.43
2018-11-22T07:25:05.968Z,16.39
2018-11-22T07:26:06.582Z,16.33
2018-11-22T07:27:07.151Z,16.36
2018-11-22T07:28:07.728Z,16.35
2018-11-22T07:29:08.401Z,16.35
2018-11-22T07:30:08.977Z,16.39
2018-11-22T07:31:09.559Z,16.38
2018-11-22T07:32:10.168Z,16.38
2018-11-22T07:33:10.791Z,16.31
2018-11-22T07:34:11.367Z,16.33
2018-11-22T07:35:11.942Z,16.35
2018-11-22T07:36:12.518Z,16.36
2018-11-22T07:37:13.095Z,16.35
2018-11-22T07:38:13.667Z,16.33
2018-11-22T07:39:14.243Z,16.38
2018-11-22T07:40:14.823Z,16.33
2018-11-22T07:41:15.398Z,16.33
2018-11-22T07:42:15.975Z,16.35
2018-11-22T07:43:16.601Z,16.35
2018-11-22T07:44:17.177Z,16.33
2018-11-22T07:46:02.313Z,16.39
2018-11-22T07:47:02.888Z,16.36
2018-11-22T07:48:03.463Z,16.33
2018-11-22T07:49:04.037Z,16.38
2018-11-22T07:50:04.615Z,16.43
2018-11-22T07:51:05.184Z,16.36
2018-11-22T07:52:05.757Z,16.39
2018-11-22T07:53:06.381Z,16.36
2018-11-22T07:54:06.955Z,16.38
2018-11-22T07:55:07.539Z,16.36
2018-11-22T07:56:08.116Z,16.38
2018-11-22T07:57:08.681Z,16.31
2018-11-22T07:58:09.306Z,16.42
2018-11-22T07:59:09.931Z,16.41
2018-11-22T08:00:10.555Z,16.36
2018-11-22T08:01:11.133Z,16.33
2018-11-22T08:02:11.709Z,16.38
2018-11-22T08:03:12.286Z,16.42
2018-11-22T08:04:12.858Z,16.31
2018-11-22T08:05:13.484Z,16.36
2018-11-22T08:06:14.061Z,16.41
2018-11-22T08:07:59.150Z,16.33
2018-11-22T08:08:59.727Z,16.36
2018-11-22T08:10:00.311Z,16.35
2018-11-22T08:11:00.929Z,16.31
2018-11-22T08:12:01.504Z,16.39
2018-11-22T08:13:02.100Z,16.32
2018-11-22T08:14:02.652Z,16.32
2018-11-22T08:15:03.227Z,16.32
2018-11-22T08:16:03.802Z,16.33
2018-11-22T08:17:04.377Z,16.38
2018-11-22T08:18:05.003Z,16.35
2018-11-22T08:19:05.576Z,16.43
2018-11-22T08:20:06.155Z,16.47
2018-11-22T08:21:06.740Z,16.42
2018-11-22T08:22:07.353Z,16.46
2018-11-22T08:23:07.927Z,16.50
2018-11-22T08:24:08.553Z,16.50
2018-11-22T08:25:09.137Z,16.57
2018-11-22T08:26:09.705Z,16.58
2018-11-22T08:27:10.281Z,16.57
2018-11-22T08:28:10.906Z,16.57
2018-11-22T08:29:56.000Z,16.58
2018-11-22T08:30:56.572Z,16.56
2018-11-22T08:31:57.149Z,16.53
2018-11-22T08:32:57.723Z,16.60
2018-11-22T08:33:58.305Z,16.58
2018-11-22T08:34:58.871Z,16.60
2018-11-22T08:35:59.452Z,16.57
2018-11-22T08:37:00.031Z,16.54
2018-11-22T08:38:00.633Z,16.51
2018-11-22T08:39:01.208Z,16.57
2018-11-22T08:40:01.781Z,16.50
2018-11-22T08:41:02.357Z,16.43
2018-11-22T08:42:02.931Z,16.50
2018-11-22T08:43:03.654Z,16.46
2018-11-22T08:44:04.289Z,16.41
2018-11-22T08:45:04.855Z,16.41
2018-11-22T08:46:05.430Z,16.32
2018-11-22T08:47:06.322Z,16.38
2018-11-22T08:48:06.587Z,16.38
2018-11-22T08:49:07.196Z,16.35
2018-11-22T08:50:07.770Z,16.33
2018-11-22T08:51:52.856Z,16.38
2018-11-22T08:52:53.482Z,16.38
2018-11-22T08:53:54.056Z,16.38
2018-11-22T08:54:54.631Z,16.35
2018-11-22T08:55:55.204Z,16.32
2018-11-22T08:56:55.781Z,16.31
2018-11-22T08:57:56.353Z,16.31
2018-11-22T08:58:56.925Z,16.36
2018-11-22T08:59:57.499Z,16.38
2018-11-22T09:00:58.123Z,16.33
2018-11-22T09:01:58.699Z,16.35
2018-11-22T09:02:59.272Z,16.36
2018-11-22T09:03:59.900Z,16.33
2018-11-22T09:05:00.471Z,16.26
2018-11-22T09:06:01.044Z,16.31
2018-11-22T09:07:01.621Z,16.26
2018-11-22T09:08:02.195Z,16.28
2018-11-22T09:09:02.818Z,16.31
2018-11-22T09:10:03.432Z,16.23
2018-11-22T09:11:04.017Z,16.24
2018-11-22T09:12:04.593Z,16.36
2018-11-22T09:13:49.680Z,16.24
2018-11-22T09:14:50.255Z,16.28
2018-11-22T09:15:50.830Z,16.31
2018-11-22T09:16:51.405Z,16.31
2018-11-22T09:17:51.977Z,16.36
2018-11-22T09:18:52.554Z,16.39
2018-11-22T09:19:53.176Z,16.36
2018-11-22T09:20:53.799Z,16.35
2018-11-22T09:21:54.372Z,16.39
2018-11-22T09:22:54.947Z,16.39
2018-11-22T09:23:55.530Z,16.39
2018-11-22T09:24:56.145Z,16.32
2018-11-22T09:25:56.719Z,16.36
2018-11-22T09:26:57.295Z,16.16
2018-11-22T09:27:57.873Z,16.04
2018-11-22T09:28:58.453Z,16.02
2018-11-22T09:29:59.081Z,16.09
2018-11-22T09:30:59.659Z,16.04
2018-11-22T09:32:00.239Z,16.08
2018-11-22T09:33:00.816Z,16.16
2018-11-22T09:34:01.392Z,16.17
2018-11-22T09:35:46.483Z,16.23
2018-11-22T09:36:47.060Z,16.21
2018-11-22T09:37:47.687Z,16.23
2018-11-22T09:38:48.265Z,16.15
2018-11-22T09:39:48.892Z,16.17
2018-11-22T09:40:49.519Z,16.17
2018-11-22T09:41:50.096Z,16.15
2018-11-22T09:42:50.673Z,16.21
2018-11-22T09:43:51.248Z,16.16
2018-11-22T09:44:51.825Z,16.15
2018-11-22T09:45:52.403Z,16.21
2018-11-22T09:46:52.979Z,16.17
2018-11-22T09:47:53.607Z,16.13
2018-11-22T09:48:54.184Z,16.17
2018-11-22T09:49:54.760Z,16.26
2018-11-22T09:50:55.341Z,16.16
2018-11-22T09:51:55.919Z,16.23
2018-11-22T09:52:56.493Z,16.16
2018-11-22T09:53:57.070Z,16.21
2018-11-22T09:54:57.648Z,16.13
2018-11-22T09:55:58.277Z,16.12
2018-11-22T09:57:43.417Z,16.10
2018-11-22T09:58:43.997Z,16.20
2018-11-22T09:59:44.575Z,16.24
2018-11-22T10:00:45.152Z,16.16
2018-11-22T10:01:45.730Z,16.08
2018-11-22T10:02:46.307Z,16.16
2018-11-22T10:03:46.887Z,16.24
2018-11-22T10:04:47.542Z,16.20
2018-11-22T10:05:48.128Z,16.21
2018-11-22T10:06:48.746Z,16.17
2018-11-22T10:07:49.324Z,16.13
2018-11-22T10:08:49.903Z,16.13
2018-11-22T10:09:50.480Z,16.02
2018-11-22T10:10:51.103Z,16.12
2018-11-22T10:11:51.682Z,16.16
2018-11-22T10:12:52.260Z,16.15
2018-11-22T10:13:52.989Z,16.16
2018-11-22T10:14:53.566Z,16.24
2018-11-22T10:15:54.195Z,16.26
2018-11-22T10:16:54.785Z,16.09
2018-11-22T10:17:55.353Z,16.23
2018-11-22T10:19:40.445Z,16.32
2018-11-22T10:20:41.025Z,16.46
2018-11-22T10:21:41.602Z,16.53
2018-11-22T10:22:42.181Z,16.69
2018-11-22T10:23:42.807Z,16.64
2018-11-22T10:24:43.340Z,16.60
2018-11-22T10:25:43.917Z,16.69
2018-11-22T10:26:44.496Z,16.75
2018-11-22T10:27:45.072Z,16.89
2018-11-22T10:28:45.702Z,16.78
2018-11-22T10:29:46.283Z,16.96
2018-11-22T10:30:46.914Z,16.96
2018-11-22T10:31:47.556Z,17.04
2018-11-22T10:32:48.164Z,16.96
2018-11-22T10:33:48.746Z,16.93
2018-11-22T10:34:49.327Z,16.97
2018-11-22T10:35:49.910Z,17.02
2018-11-22T10:36:50.485Z,17.05
2018-11-22T10:37:51.152Z,17.14
2018-11-22T10:38:51.786Z,17.22
2018-11-22T10:39:52.368Z,17.26
2018-11-22T10:41:37.460Z,17.12
2018-11-22T10:42:38.097Z,17.24
2018-11-22T10:43:38.662Z,17.31
2018-11-22T10:44:39.241Z,17.36
2018-11-22T10:45:39.822Z,17.44
2018-11-22T10:46:40.450Z,17.44
2018-11-22T10:47:41.031Z,17.41
2018-11-22T10:48:41.612Z,17.45
2018-11-22T10:49:42.240Z,17.46
2018-11-22T10:50:42.821Z,17.49
2018-11-22T10:51:43.403Z,17.52
2018-11-22T10:52:43.982Z,17.57
2018-11-22T10:53:44.563Z,17.56
2018-11-22T10:54:45.144Z,17.67
2018-11-22T10:55:45.723Z,17.65
2018-11-22T10:56:46.304Z,17.71
2018-11-22T10:57:46.929Z,17.72
2018-11-22T10:58:48.450Z,17.74
2018-11-22T10:59:49.032Z,17.74
2018-11-22T11:00:49.615Z,17.71
2018-11-22T11:01:50.197Z,17.70
2018-11-22T11:03:35.491Z,17.72
2018-11-22T11:04:36.071Z,17.71
2018-11-22T11:05:36.652Z,17.71
2018-11-22T11:06:37.236Z,17.68
2018-11-22T11:07:37.872Z,17.70
2018-11-22T11:08:38.443Z,17.67
2018-11-22T11:09:39.030Z,17.60
2018-11-22T11:10:39.603Z,17.51
2018-11-22T11:11:40.182Z,17.49
2018-11-22T11:12:40.764Z,17.46
2018-11-22T11:13:41.343Z,17.42
2018-11-22T11:14:41.923Z,17.41
2018-11-22T11:15:42.510Z,17.44
2018-11-22T11:16:43.132Z,17.44
2018-11-22T11:17:43.721Z,17.38
2018-11-22T11:18:44.291Z,17.39
2018-11-22T11:19:44.922Z,17.36
2018-11-22T11:20:45.501Z,17.31
2018-11-22T11:21:46.082Z,17.31
2018-11-22T11:22:46.663Z,17.26
2018-11-22T11:23:47.244Z,17.33
2018-11-22T11:25:32.342Z,17.33
2018-11-22T11:26:32.962Z,17.29
2018-11-22T11:27:33.591Z,17.42
2018-11-22T11:28:34.172Z,17.36
2018-11-22T11:29:34.750Z,17.30
2018-11-22T11:30:35.329Z,17.31
2018-11-22T11:31:35.908Z,17.39
2018-11-22T11:32:36.489Z,17.34
2018-11-22T11:33:37.074Z,17.46
2018-11-22T11:34:37.646Z,17.46
2018-11-22T11:35:38.234Z,17.34
2018-11-22T11:36:38.899Z,17.42
2018-11-22T11:37:39.478Z,17.42
2018-11-22T11:38:40.057Z,17.42
2018-11-22T11:39:40.687Z,17.41
2018-11-22T11:40:41.268Z,17.45
2018-11-22T11:41:41.850Z,17.44
2018-11-22T11:42:42.427Z,17.42
2018-11-22T11:43:43.159Z,17.41
2018-11-22T11:44:43.740Z,17.41
2018-11-22T11:45:44.322Z,17.45
2018-11-22T11:47:29.415Z,17.41
2018-11-22T11:48:29.995Z,17.30
2018-11-22T11:49:30.574Z,17.33
2018-11-22T11:50:31.154Z,17.31
2018-11-22T11:51:31.733Z,17.27
2018-11-22T11:52:32.311Z,17.33
2018-11-22T11:53:41.276Z,17.33
2018-11-22T11:54:34.615Z,17.22
2018-11-22T11:55:35.194Z,17.23
2018-11-22T11:56:35.772Z,17.23
2018-11-22T11:57:36.354Z,17.16
2018-11-22T11:58:36.933Z,17.16
2018-11-22T11:59:37.515Z,17.05
2018-11-22T12:00:38.141Z,17.14
2018-11-22T12:01:38.722Z,17.08
2018-11-22T12:02:39.302Z,17.05
2018-11-22T12:03:39.932Z,16.97
2018-11-22T12:04:40.510Z,16.93
2018-11-22T12:05:41.171Z,16.96
2018-11-22T12:06:41.720Z,17.08
2018-11-22T12:07:42.302Z,16.87
2018-11-22T12:09:27.397Z,16.87
2018-11-22T12:10:27.977Z,16.91
2018-11-22T12:11:28.556Z,16.93
2018-11-22T12:12:29.139Z,16.96
2018-11-22T12:13:29.715Z,16.87
2018-11-22T12:14:30.345Z,16.83
2018-11-22T12:15:30.919Z,16.81
2018-11-22T12:16:31.498Z,16.86
2018-11-22T12:17:32.125Z,16.86
2018-11-22T12:18:36.864Z,16.69
2018-11-22T12:19:34.277Z,16.81
2018-11-22T12:20:34.855Z,16.79
2018-11-22T12:21:35.434Z,16.76
2018-11-22T12:22:36.015Z,16.71
2018-11-22T12:23:36.642Z,16.75
2018-11-22T12:24:37.374Z,16.71
2018-11-22T12:25:37.953Z,16.69
2018-11-22T12:26:38.530Z,16.72
2018-11-22T12:27:39.108Z,16.71
2018-11-22T12:28:39.690Z,16.66
2018-11-22T12:29:40.271Z,16.78
2018-11-22T12:31:25.562Z,16.81
2018-11-22T12:32:26.146Z,16.86
2018-11-22T12:33:26.772Z,16.84
2018-11-22T12:34:27.350Z,16.84
2018-11-22T12:35:27.928Z,16.91
2018-11-22T12:36:28.509Z,16.93
2018-11-22T12:37:29.088Z,16.91
2018-11-22T12:38:29.664Z,16.87
2018-11-22T12:39:30.255Z,16.86
2018-11-22T12:40:30.880Z,16.91
2018-11-22T12:41:31.501Z,16.83
2018-11-22T12:42:32.080Z,16.90
2018-11-22T12:43:32.659Z,16.78
2018-11-22T12:44:33.237Z,16.86
2018-11-22T12:45:33.819Z,16.96
2018-11-22T12:46:34.447Z,16.96
2018-11-22T12:47:35.028Z,17.06
2018-11-22T12:48:35.610Z,17.08
2018-11-22T12:49:36.338Z,17.27
2018-11-22T12:50:36.918Z,17.31
2018-11-22T12:51:37.507Z,17.45
2018-11-22T12:53:22.651Z,17.42
2018-11-22T12:54:23.266Z,17.41
2018-11-22T12:55:23.848Z,17.27
2018-11-22T12:56:24.428Z,17.31
2018-11-22T12:57:25.005Z,17.24
2018-11-22T12:58:25.583Z,17.26
2018-11-22T12:59:26.161Z,17.20
2018-11-22T13:00:26.750Z,17.16
2018-11-22T13:01:27.319Z,17.06
2018-11-22T13:02:27.906Z,17.08
2018-11-22T13:03:28.484Z,17.01
2018-11-22T13:04:29.100Z,16.99
2018-11-22T13:05:29.831Z,17.08
2018-11-22T13:06:30.411Z,17.01
2018-11-22T13:07:31.037Z,17.01
2018-11-22T13:08:31.618Z,17.02
2018-11-22T13:09:32.291Z,16.99
2018-11-22T13:10:32.870Z,16.99
2018-11-22T13:11:33.454Z,16.97
2018-11-22T13:12:34.029Z,16.94
2018-11-22T13:13:34.610Z,17.01
2018-11-22T13:15:19.743Z,16.91
2018-11-22T13:16:20.282Z,16.93
2018-11-22T13:17:20.862Z,16.90
2018-11-22T13:18:21.459Z,16.89
2018-11-22T13:19:22.021Z,16.93
2018-11-22T13:20:22.602Z,16.89
2018-11-22T13:21:23.234Z,16.93
2018-11-22T13:22:23.856Z,16.94
2018-11-22T13:23:24.430Z,16.99
2018-11-22T13:24:25.010Z,17.01
2018-11-22T13:25:25.592Z,17.06
2018-11-22T13:26:26.379Z,17.16
2018-11-22T13:27:27.008Z,17.19